Time;durP1;ratioP1;P1;durP2;ratioP2;P2;SDS_P1;SDS_P2;PMS_P1;PMS_P2;Temp;Humidity;BMP_temperature;BMP_pressure;BME280_temperature;BME280_humidity;BME280_pressure;Samples;Min_cycle;Max_cycle;Signal;HPM_P1;HPM_P2
2022/03/24 00:00:27;;;;;;;56.15;31.55;;;10.10;65.40;;;;;;5008758;28;20116;-75
2022/03/24 00:02:53;;;;;;;52.50;29.60;;;10.10;65.50;;;;;;5014717;28;20040;-79
2022/03/24 00:05:19;;;;;;;53.85;30.25;;;10.10;65.30;;;;;;5031786;28;20104;-80
2022/03/24 00:07:45;;;;;;;60.00;30.83;;;10.00;65.20;;;;;;4996777;28;20222;-79
2022/03/24 00:10:11;;;;;;;53.22;30.48;;;10.10;65.20;;;;;;5010282;28;20033;-79
2022/03/24 00:12:39;;;;;;;53.67;29.55;;;10.00;65.10;;;;;;5030089;28;20044;-80
2022/03/24 00:15:07;;;;;;;55.03;30.65;;;10.00;65.60;;;;;;4996189;28;20047;-77
2022/03/24 00:17:33;;;;;;;52.50;29.42;;;10.00;65.40;;;;;;5003979;28;20113;-77
2022/03/24 00:20:00;;;;;;;53.38;29.42;;;10.00;65.40;;;;;;4997443;28;20040;-79
2022/03/24 00:22:26;;;;;;;56.72;30.52;;;10.00;65.40;;;;;;4997162;28;20038;-80
2022/03/24 00:24:52;;;;;;;55.10;29.67;;;10.00;65.50;;;;;;5014487;28;20061;-77
2022/03/24 00:27:19;;;;;;;51.45;29.70;;;9.90;65.40;;;;;;5014051;28;20165;-77
2022/03/24 00:29:45;;;;;;;49.88;28.33;;;9.90;65.60;;;;;;5023867;28;20320;-78
2022/03/24 00:32:11;;;;;;;51.78;29.38;;;9.90;65.60;;;;;;5026671;28;20021;-78
2022/03/24 00:34:37;;;;;;;54.30;31.30;;;9.80;65.50;;;;;;5011709;28;20033;-80
2022/03/24 00:37:04;;;;;;;49.60;29.30;;;9.80;65.50;;;;;;4994794;28;20037;-79
2022/03/24 00:39:34;;;;;;;55.08;29.48;;;9.80;65.80;;;;;;5014507;28;20021;-80
2022/03/24 00:42:07;;;;;;;60.60;32.05;;;9.70;65.80;;;;;;5029940;28;20039;-82
2022/03/24 00:44:33;;;;;;;55.63;30.38;;;9.80;66.00;;;;;;5027379;28;20079;-81
2022/03/24 00:46:59;;;;;;;55.70;30.20;;;9.70;66.10;;;;;;5004179;28;20037;-81
2022/03/24 00:49:27;;;;;;;52.42;30.20;;;9.70;66.20;;;;;;4972437;28;20030;-78
2022/03/24 00:51:53;;;;;;;54.75;30.98;;;9.80;65.90;;;;;;5010901;28;20033;-80
2022/03/24 00:54:19;;;;;;;57.92;30.10;;;9.80;65.90;;;;;;5031440;28;20540;-82
2022/03/24 00:56:48;;;;;;;54.30;29.38;;;9.70;65.90;;;;;;5011935;28;20040;-81
2022/03/24 00:59:14;;;;;;;51.33;29.38;;;9.70;65.80;;;;;;4995816;28;20037;-82
2022/03/24 01:01:41;;;;;;;55.38;31.00;;;9.70;65.80;;;;;;5028107;28;20029;-80
2022/03/24 01:04:07;;;;;;;58.30;30.30;;;9.70;65.90;;;;;;5027338;28;20216;-80
2022/03/24 01:06:34;;;;;;;51.17;29.23;;;9.80;66.00;;;;;;5005930;28;20027;-79
2022/03/24 01:09:05;;;;;;;50.40;28.73;;;9.70;66.00;;;;;;5028706;28;20489;-79
2022/03/24 01:11:31;;;;;;;50.60;29.58;;;9.70;66.00;;;;;;4994016;28;20394;-81
2022/03/24 01:13:57;;;;;;;54.60;30.70;;;9.60;65.90;;;;;;5009032;28;20029;-81
2022/03/24 01:16:25;;;;;;;49.70;27.92;;;9.60;66.30;;;;;;5032105;28;20484;-77
2022/03/24 01:18:52;;;;;;;51.38;29.58;;;9.50;66.20;;;;;;5034669;28;20033;-77
2022/03/24 01:21:17;;;;;;;55.65;30.58;;;9.60;66.40;;;;;;5005577;28;20433;-78
2022/03/24 01:23:47;;;;;;;53.08;29.40;;;9.60;66.50;;;;;;5022779;28;20048;-79
2022/03/24 01:26:14;;;;;;;53.88;28.92;;;9.50;66.40;;;;;;5005987;28;20061;-80
2022/03/24 01:28:41;;;;;;;54.42;29.50;;;9.50;66.60;;;;;;5015573;28;20053;-80
2022/03/24 01:31:08;;;;;;;51.97;28.30;;;9.50;66.70;;;;;;5033387;28;20036;-77
2022/03/24 01:33:37;;;;;;;57.03;29.95;;;9.40;66.70;;;;;;5044676;28;20104;-77
2022/03/24 01:36:08;;;;;;;52.03;28.85;;;9.40;67.20;;;;;;5025810;28;20107;-81
2022/03/24 01:38:34;;;;;;;;;;;9.40;67.10;;;;;;5028889;28;20044;-79
2022/03/24 01:41:00;;;;;;;53.00;27.70;;;9.40;67.10;;;;;;5022271;28;19968;-77
2022/03/24 01:43:26;;;;;;;53.85;28.80;;;9.40;67.30;;;;;;5022788;28;20045;-77
2022/03/24 01:45:53;;;;;;;57.75;29.50;;;9.30;67.20;;;;;;5044129;28;20056;-78
2022/03/24 01:48:19;;;;;;;61.58;32.25;;;9.40;67.50;;;;;;5043906;28;20029;-77
2022/03/24 01:50:44;;;;;;;55.30;29.50;;;9.30;67.50;;;;;;5044579;28;20317;-76
2022/03/24 01:53:12;;;;;;;54.60;30.55;;;9.30;67.60;;;;;;5041870;28;20117;-77
2022/03/24 01:55:39;;;;;;;54.58;30.85;;;9.30;67.70;;;;;;5025862;28;20037;-79
2022/03/24 01:58:05;;;;;;;54.72;31.00;;;9.30;68.00;;;;;;5014399;28;20116;-78
2022/03/24 02:00:32;;;;;;;58.72;32.28;;;9.30;68.00;;;;;;5045376;28;20026;-77
2022/03/24 02:03:04;;;;;;;54.88;30.85;;;9.30;68.10;;;;;;5027351;28;20120;-79
2022/03/24 02:05:35;;;;;;;55.28;30.73;;;9.20;68.20;;;;;;5010226;28;20029;-77
2022/03/24 02:08:03;;;;;;;55.38;29.90;;;9.30;68.30;;;;;;5023487;28;20060;-77
2022/03/24 02:10:33;;;;;;;59.05;32.35;;;9.20;68.60;;;;;;5029684;28;20037;-80
2022/03/24 02:12:59;;;;;;;57.97;31.85;;;9.20;68.60;;;;;;5010420;28;20030;-78
2022/03/24 02:15:26;;;;;;;56.45;31.92;;;9.20;69.00;;;;;;5026173;28;20048;-80
2022/03/24 02:17:52;;;;;;;55.00;31.95;;;9.10;68.70;;;;;;5023216;28;20048;-77
2022/03/24 02:20:23;;;;;;;53.85;30.58;;;9.10;68.90;;;;;;5026534;28;20056;-78
2022/03/24 02:22:49;;;;;;;52.23;29.90;;;9.10;68.90;;;;;;5040707;28;20089;-80
2022/03/24 02:25:15;;;;;;;61.20;32.75;;;9.00;68.90;;;;;;5026180;28;20037;-78
2022/03/24 02:27:43;;;;;;;57.15;30.95;;;9.10;69.10;;;;;;5026832;28;20113;-78
2022/03/24 02:30:10;;;;;;;56.95;30.35;;;9.00;69.00;;;;;;5012026;28;20025;-77
2022/03/24 02:32:36;;;;;;;54.63;30.80;;;9.00;68.90;;;;;;5027355;28;20060;-76
2022/03/24 02:35:02;;;;;;;54.95;32.25;;;9.00;69.10;;;;;;5028529;28;20030;-76
2022/03/24 02:37:28;;;;;;;51.20;30.70;;;9.00;69.40;;;;;;5044052;28;20045;-76
2022/03/24 02:39:59;;;;;;;52.80;31.13;;;9.00;69.30;;;;;;5046953;28;20029;-76
2022/03/24 02:42:27;;;;;;;58.53;32.05;;;9.00;69.40;;;;;;5028138;28;20072;-76
2022/03/24 02:44:57;;;;;;;60.55;32.95;;;9.00;69.70;;;;;;5018703;28;20029;-79
2022/03/24 02:47:23;;;;;;;54.53;32.15;;;8.90;69.80;;;;;;5019091;28;20018;-76
2022/03/24 02:49:51;;;;;;;54.70;30.65;;;8.90;69.70;;;;;;5021696;28;20021;-77
2022/03/24 02:52:17;;;;;;;61.22;31.92;;;8.80;70.10;;;;;;5024177;28;20101;-79
2022/03/24 02:54:43;;;;;;;55.15;31.20;;;8.80;70.20;;;;;;5000367;28;20136;-81
2022/03/24 02:57:10;;;;;;;55.35;31.05;;;8.80;70.30;;;;;;4996447;28;20048;-81
2022/03/24 02:59:36;;;;;;;57.17;31.23;;;8.70;70.40;;;;;;4994928;28;20029;-79
2022/03/24 03:02:07;;;;;;;53.95;29.35;;;8.70;70.50;;;;;;5007917;28;20160;-81
2022/03/24 03:04:34;;;;;;;54.90;31.25;;;8.70;70.60;;;;;;5028486;28;20037;-79
2022/03/24 03:07:02;;;;;;;56.33;31.00;;;8.70;70.60;;;;;;5005761;28;20109;-81
2022/03/24 03:09:29;;;;;;;55.13;30.98;;;8.60;70.70;;;;;;4995817;28;20036;-79
2022/03/24 03:11:57;;;;;;;57.03;32.45;;;8.60;71.10;;;;;;5028887;28;20184;-81
2022/03/24 03:14:23;;;;;;;55.50;31.80;;;8.60;71.30;;;;;;5010775;28;20108;-81
2022/03/24 03:16:50;;;;;;;59.63;32.42;;;8.60;71.40;;;;;;4996223;28;20053;-78
2022/03/24 03:19:19;;;;;;;56.35;30.98;;;8.60;71.60;;;;;;4992869;28;20040;-80
2022/03/24 03:21:45;;;;;;;56.22;31.55;;;8.60;71.70;;;;;;5016247;28;20125;-81
2022/03/24 03:24:12;;;;;;;53.38;30.48;;;8.60;71.70;;;;;;4993559;28;20491;-79
2022/03/24 03:26:39;;;;;;;58.25;33.83;;;8.50;71.50;;;;;;5012502;28;20022;-79
2022/03/24 03:29:06;;;;;;;58.63;32.13;;;8.50;71.80;;;;;;5012634;28;20646;-79
2022/03/24 03:31:34;;;;;;;57.30;33.47;;;8.50;72.00;;;;;;4996671;28;20426;-80
2022/03/24 03:34:00;;;;;;;55.25;31.30;;;8.50;72.50;;;;;;4998081;28;20029;-78
2022/03/24 03:36:26;;;;;;;56.58;30.88;;;8.40;72.30;;;;;;5029796;28;20029;-79
2022/03/24 03:38:52;;;;;;;55.80;32.10;;;8.40;72.50;;;;;;5013364;28;20025;-77
2022/03/24 03:41:21;;;;;;;54.65;31.60;;;8.40;72.50;;;;;;5033779;28;20568;-78
2022/03/24 03:43:47;;;;;;;58.70;33.17;;;8.40;72.80;;;;;;5034856;28;20029;-81
2022/03/24 03:46:13;;;;;;;58.72;31.95;;;8.40;72.90;;;;;;5009536;28;20118;-79
2022/03/24 03:48:40;;;;;;;60.05;32.95;;;8.30;73.00;;;;;;5028486;28;20033;-79
2022/03/24 03:51:07;;;;;;;57.38;31.90;;;8.40;73.20;;;;;;5014660;28;20043;-78
2022/03/24 03:53:34;;;;;;;54.92;31.45;;;8.30;73.20;;;;;;5018321;28;20039;-77
2022/03/24 03:56:01;;;;;;;55.50;32.60;;;8.30;73.40;;;;;;5043663;28;20037;-79
2022/03/24 03:58:26;;;;;;;57.20;31.98;;;8.30;73.80;;;;;;5024387;28;20052;-76
2022/03/24 04:00:58;;;;;;;57.60;32.47;;;8.30;73.70;;;;;;5022209;28;20064;-76
2022/03/24 04:03:26;;;;;;;62.10;33.00;;;8.30;73.80;;;;;;5029546;28;20056;-76
2022/03/24 04:05:53;;;;;;;61.20;33.42;;;8.30;74.00;;;;;;4995347;28;20037;-80
2022/03/24 04:08:19;;;;;;;57.50;32.45;;;8.20;73.90;;;;;;5033377;28;20025;-79
2022/03/24 04:10:45;;;;;;;55.88;31.70;;;8.20;74.10;;;;;;5014288;28;20612;-77
2022/03/24 04:13:11;;;;;;;54.08;30.33;;;8.20;74.10;;;;;;5027579;28;20117;-78
2022/03/24 04:15:40;;;;;;;60.00;31.70;;;8.20;74.30;;;;;;5008129;28;20136;-80
2022/03/24 04:18:10;;;;;;;58.67;31.95;;;8.20;74.50;;;;;;5005776;28;20021;-79
2022/03/24 04:20:36;;;;;;;54.17;31.63;;;8.10;74.60;;;;;;5002080;28;20025;-78
2022/03/24 04:23:05;;;;;;;55.45;31.27;;;8.10;74.70;;;;;;5012402;28;20029;-81
2022/03/24 04:25:31;;;;;;;56.05;30.20;;;8.10;75.10;;;;;;5031946;28;20032;-79
2022/03/24 04:27:57;;;;;;;56.50;30.83;;;8.10;75.20;;;;;;5024569;28;20026;-79
2022/03/24 04:30:26;;;;;;;61.22;31.92;;;8.00;75.20;;;;;;5009858;28;20064;-82
2022/03/24 04:32:53;;;;;;;58.67;31.35;;;8.00;75.50;;;;;;4975843;28;20034;-77
2022/03/24 04:35:19;;;;;;;62.92;33.63;;;8.00;75.50;;;;;;4998531;28;20029;-80
2022/03/24 04:37:46;;;;;;;59.50;33.95;;;8.00;76.00;;;;;;5011578;28;20034;-78
2022/03/24 04:40:15;;;;;;;54.63;31.23;;;8.00;76.10;;;;;;5030987;28;20232;-78
2022/03/24 04:42:42;;;;;;;59.55;32.70;;;7.90;76.30;;;;;;5035606;28;20087;-79
2022/03/24 04:45:09;;;;;;;61.65;34.03;;;7.90;76.50;;;;;;5018112;28;20568;-81
2022/03/24 04:47:35;;;;;;;57.17;31.65;;;7.90;76.90;;;;;;5021767;28;20044;-79
2022/03/24 04:50:01;;;;;;;54.75;30.90;;;7.90;77.30;;;;;;4999621;28;20048;-79
2022/03/24 04:52:27;;;;;;;57.22;32.03;;;7.90;77.50;;;;;;4995011;28;20022;-81
2022/03/24 04:54:53;;;;;;;54.20;31.30;;;7.80;77.40;;;;;;4997226;28;20060;-77
2022/03/24 04:57:18;;;;;;;59.78;31.83;;;7.80;77.60;;;;;;5030879;28;20034;-78
2022/03/24 04:59:44;;;;;;;55.83;31.58;;;7.80;77.70;;;;;;5029151;28;20109;-79
2022/03/24 05:02:15;;;;;;;61.78;32.40;;;7.90;78.10;;;;;;5029055;28;20037;-78
2022/03/24 05:04:44;;;;;;;;;;;7.90;78.10;;;;;;4997987;28;20046;-78
2022/03/24 05:07:10;;;;;;;54.78;31.27;;;7.80;78.20;;;;;;5010138;28;19970;-79
2022/03/24 05:09:39;;;;;;;61.97;32.42;;;7.80;78.60;;;;;;5011916;28;20405;-79
2022/03/24 05:12:06;;;;;;;56.20;31.63;;;7.70;78.90;;;;;;5030321;28;20036;-81
2022/03/24 05:14:32;;;;;;;53.67;30.95;;;7.80;79.10;;;;;;5010814;28;20025;-80
2022/03/24 05:17:01;;;;;;;57.75;32.78;;;7.70;79.20;;;;;;4994337;28;20026;-78
2022/03/24 05:19:27;;;;;;;62.13;33.13;;;7.70;79.20;;;;;;5022883;28;20532;-80
2022/03/24 05:21:54;;;;;;;61.70;33.55;;;7.70;79.60;;;;;;5027007;28;20116;-79
2022/03/24 05:24:20;;;;;;;64.95;32.38;;;7.70;80.30;;;;;;5013068;28;20108;-80
2022/03/24 05:26:46;;;;;;;60.97;32.35;;;7.70;80.20;;;;;;4996506;28;20159;-79
2022/03/24 05:29:12;;;;;;;56.63;32.22;;;7.70;80.70;;;;;;5011474;28;20032;-78
2022/03/24 05:31:38;;;;;;;65.07;35.25;;;7.60;81.20;;;;;;5022428;28;20025;-79
2022/03/24 05:34:04;;;;;;;58.10;32.50;;;7.60;81.10;;;;;;5026075;28;20021;-80
2022/03/24 05:36:30;;;;;;;66.38;32.50;;;7.60;81.10;;;;;;5030626;28;20025;-81
2022/03/24 05:38:56;;;;;;;58.65;32.67;;;7.70;81.40;;;;;;5010606;28;20037;-79
2022/03/24 05:41:22;;;;;;;64.55;31.85;;;7.60;81.50;;;;;;5027364;28;20032;-78
2022/03/24 05:44:03;;;;;;;56.38;32.47;;;7.60;81.60;;;;;;5030807;28;20029;-78
2022/03/24 05:46:41;;;;;;;56.22;31.10;;;7.70;81.70;;;;;;5027472;28;20028;-78
2022/03/24 05:49:09;;;;;;;56.03;32.30;;;7.60;82.00;;;;;;5007988;28;20017;-79
2022/03/24 05:51:36;;;;;;;57.85;31.83;;;7.60;82.20;;;;;;4996609;28;20032;-77
2022/03/24 05:54:03;;;;;;;57.72;32.10;;;7.60;82.20;;;;;;5010557;28;20116;-78
2022/03/24 05:56:30;;;;;;;60.00;33.30;;;7.70;82.40;;;;;;5013491;28;20033;-77
2022/03/24 05:58:56;;;;;;;58.70;33.08;;;7.70;82.50;;;;;;5005515;28;20137;-81
2022/03/24 06:01:24;;;;;;;57.65;31.67;;;7.80;82.30;;;;;;5037319;28;20036;-79
2022/03/24 06:03:51;;;;;;;57.85;33.65;;;7.80;82.30;;;;;;4998062;28;20021;-78
2022/03/24 06:06:18;;;;;;;58.33;30.98;;;7.80;82.50;;;;;;5012079;28;20448;-79
2022/03/24 06:08:44;;;;;;;63.97;35.72;;;7.90;82.40;;;;;;5011520;28;20160;-79
2022/03/24 06:11:13;;;;;;;59.90;33.65;;;7.90;82.50;;;;;;5009890;28;20021;-78
2022/03/24 06:13:42;;;;;;;53.88;31.85;;;7.90;82.40;;;;;;5008579;28;20041;-80
2022/03/24 06:16:09;;;;;;;62.03;32.85;;;7.90;82.40;;;;;;5027284;28;20029;-82
2022/03/24 06:18:39;;;;;;;62.72;33.35;;;8.00;83.00;;;;;;5029738;28;20025;-77
2022/03/24 06:21:08;;;;;;;59.88;32.35;;;8.00;82.20;;;;;;5036247;28;20010;-77
2022/03/24 06:23:34;;;;;;;60.13;33.63;;;8.00;82.20;;;;;;5007540;28;20130;-77
2022/03/24 06:26:00;;;;;;;60.83;32.38;;;8.10;82.10;;;;;;4998164;28;20097;-80
2022/03/24 06:28:26;;;;;;;58.78;32.45;;;8.10;82.10;;;;;;5026592;28;20075;-79
2022/03/24 06:30:52;;;;;;;57.05;32.10;;;8.10;81.90;;;;;;5030512;28;20025;-77
2022/03/24 06:33:18;;;;;;;54.55;32.03;;;8.10;81.80;;;;;;5009950;28;20026;-76
2022/03/24 06:35:46;;;;;;;55.70;31.75;;;8.20;81.90;;;;;;5025167;28;20034;-82
2022/03/24 06:38:16;;;;;;;59.28;30.27;;;8.20;81.80;;;;;;5026923;28;20097;-80
2022/03/24 06:40:42;;;;;;;55.17;32.63;;;8.20;81.60;;;;;;4991341;28;20029;-79
2022/03/24 06:43:09;;;;;;;58.95;32.78;;;8.30;81.70;;;;;;5024528;28;20706;-79
2022/03/24 06:45:36;;;;;;;59.58;31.55;;;8.30;81.50;;;;;;4960852;28;20041;-77
2022/03/24 06:48:06;;;;;;;61.85;33.75;;;8.40;81.50;;;;;;5014969;28;20034;-77
2022/03/24 06:50:32;;;;;;;62.85;33.05;;;8.40;81.60;;;;;;4992741;28;20025;-77
2022/03/24 06:52:58;;;;;;;58.17;33.42;;;8.40;81.70;;;;;;5014861;28;20022;-77
2022/03/24 06:55:24;;;;;;;62.25;33.08;;;8.40;81.60;;;;;;5010458;28;20112;-77
2022/03/24 06:57:53;;;;;;;62.28;34.08;;;8.50;81.40;;;;;;5013625;28;20056;-77
2022/03/24 07:00:21;;;;;;;59.85;31.73;;;8.50;81.30;;;;;;5031993;28;20493;-76
2022/03/24 07:02:47;;;;;;;61.22;32.53;;;8.60;81.00;;;;;;5001379;28;20053;-80
2022/03/24 07:05:14;;;;;;;61.42;32.63;;;8.60;81.00;;;;;;5031508;28;20032;-77
2022/03/24 07:07:41;;;;;;;59.33;32.83;;;8.60;80.80;;;;;;5031133;28;20121;-77
2022/03/24 07:10:07;;;;;;;58.15;32.97;;;8.70;80.50;;;;;;5024880;28;20033;-80
2022/03/24 07:12:35;;;;;;;59.88;33.55;;;8.80;80.40;;;;;;5019446;28;20052;-77
2022/03/24 07:15:01;;;;;;;65.68;33.13;;;8.80;80.00;;;;;;5020925;28;20113;-80
2022/03/24 07:17:27;;;;;;;59.20;32.22;;;8.90;79.80;;;;;;5004711;28;20025;-75
2022/03/24 07:19:53;;;;;;;61.13;32.58;;;8.90;79.50;;;;;;4999685;28;20763;-78
2022/03/24 07:22:19;;;;;;;68.03;33.42;;;9.00;79.30;;;;;;5005072;28;20021;-76
2022/03/24 07:24:44;;;;;;;58.63;32.65;;;9.00;79.10;;;;;;5022481;28;20037;-77
2022/03/24 07:27:11;;;;;;;60.78;33.97;;;9.10;78.90;;;;;;5006123;28;20040;-76
2022/03/24 07:29:37;;;;;;;58.47;32.88;;;9.10;79.50;;;;;;5002311;28;20175;-76
2022/03/24 07:32:04;;;;;;;59.78;32.40;;;9.20;78.90;;;;;;5022367;28;20135;-77
2022/03/24 07:34:30;;;;;;;62.88;32.90;;;9.20;78.50;;;;;;5008186;28;20089;-77
2022/03/24 07:36:56;;;;;;;58.25;32.58;;;9.30;78.30;;;;;;5006226;28;20120;-78
2022/03/24 07:39:22;;;;;;;59.10;31.88;;;9.30;77.60;;;;;;5005933;28;20037;-77
2022/03/24 07:41:47;;;;;;;61.33;33.83;;;9.40;77.20;;;;;;5023834;28;20597;-75
2022/03/24 07:44:13;;;;;;;59.65;34.05;;;9.40;76.70;;;;;;4988819;28;20476;-76
2022/03/24 07:46:39;;;;;;;56.22;32.40;;;9.40;76.40;;;;;;5006977;28;20025;-75
2022/03/24 07:49:05;;;;;;;58.88;31.13;;;9.50;76.00;;;;;;5027664;28;20116;-76
2022/03/24 07:51:32;;;;;;;59.35;33.50;;;9.50;76.00;;;;;;5013340;28;20030;-76
2022/03/24 07:54:04;;;;;;;62.80;34.00;;;9.60;75.60;;;;;;5011207;28;20053;-75
2022/03/24 07:56:31;;;;;;;65.03;33.95;;;9.60;75.70;;;;;;5014735;28;20031;-79
2022/03/24 07:58:58;;;;;;;58.05;32.58;;;9.60;75.20;;;;;;4992217;28;20029;-80
2022/03/24 08:01:29;;;;;;;57.58;32.42;;;9.70;75.00;;;;;;5022027;28;20477;-81
2022/03/24 08:03:55;;;;;;;;;;;9.80;74.70;;;;;;5009235;28;20037;-81
2022/03/24 08:06:21;;;;;;;57.35;31.80;;;9.80;75.10;;;;;;5021499;28;19905;-79
2022/03/24 08:08:47;;;;;;;66.10;32.67;;;9.90;75.00;;;;;;5039086;28;20022;-81
2022/03/24 08:11:14;;;;;;;65.25;33.83;;;9.90;74.50;;;;;;5015343;28;20488;-78
2022/03/24 08:13:40;;;;;;;59.63;32.25;;;10.00;73.20;;;;;;5030691;28;20105;-78
2022/03/24 08:16:06;;;;;;;53.65;30.88;;;10.10;72.60;;;;;;5021320;28;20040;-79
2022/03/24 08:18:32;;;;;;;60.58;33.20;;;10.10;72.30;;;;;;5004520;28;20370;-79
2022/03/24 08:20:58;;;;;;;60.10;32.30;;;10.30;70.10;;;;;;5022793;28;20025;-83
2022/03/24 08:23:24;;;;;;;63.92;32.33;;;10.40;70.10;;;;;;5022338;28;20056;-84
2022/03/24 08:25:51;;;;;;;55.83;32.47;;;10.40;69.90;;;;;;5020898;28;20031;-79
2022/03/24 08:28:17;;;;;;;54.25;30.52;;;10.50;69.90;;;;;;5018864;28;20071;-83
2022/03/24 08:30:47;;;;;;;60.55;32.80;;;10.60;70.10;;;;;;5025294;28;20022;-78
2022/03/24 08:33:13;;;;;;;54.72;30.02;;;10.60;69.20;;;;;;5045971;28;20033;-78
2022/03/24 08:35:40;;;;;;;57.97;33.90;;;10.70;69.50;;;;;;5030042;28;20169;-78
2022/03/24 08:38:06;;;;;;;54.20;31.23;;;10.80;69.20;;;;;;5043940;28;20082;-79
2022/03/24 08:40:32;;;;;;;57.40;31.48;;;10.90;69.20;;;;;;5046454;28;20127;-78
2022/03/24 08:42:58;;;;;;;58.92;31.55;;;11.00;68.20;;;;;;5038559;28;20422;-81
2022/03/24 08:45:24;;;;;;;51.00;27.23;;;11.10;67.30;;;;;;5000221;28;21049;-83
2022/03/24 08:47:50;;;;;;;45.22;26.13;;;11.30;66.40;;;;;;5001194;28;20061;-79
2022/03/24 08:50:16;;;;;;;57.60;28.20;;;11.40;66.70;;;;;;5038302;28;20022;-78
2022/03/24 08:52:42;;;;;;;53.83;28.88;;;11.50;63.10;;;;;;5016381;28;20045;-80
2022/03/24 08:55:09;;;;;;;49.90;28.98;;;11.60;62.00;;;;;;5002477;28;20083;-81
2022/03/24 08:57:37;;;;;;;44.40;27.27;;;11.70;62.60;;;;;;5005055;28;20041;-79
2022/03/24 09:00:16;;;;;;;46.92;27.65;;;11.80;62.60;;;;;;5019822;28;20091;-79
2022/03/24 09:02:47;;;;;;;54.28;27.98;;;11.70;62.40;;;;;;5001597;28;20045;-81
2022/03/24 09:05:16;;;;;;;47.08;27.73;;;11.80;61.80;;;;;;5035440;28;20021;-81
2022/03/24 09:07:43;;;;;;;47.70;26.83;;;11.80;61.10;;;;;;5020215;28;20049;-78
2022/03/24 09:10:10;;;;;;;50.72;27.52;;;11.80;61.40;;;;;;5005842;28;20052;-77
2022/03/24 09:12:38;;;;;;;49.58;26.48;;;11.90;60.90;;;;;;5036116;28;20034;-81
2022/03/24 09:15:05;;;;;;;50.90;26.90;;;11.80;60.50;;;;;;5037448;28;20029;-79
2022/03/24 09:17:35;;;;;;;46.40;26.80;;;11.90;59.60;;;;;;5023177;28;20037;-82
2022/03/24 09:20:03;;;;;;;47.72;27.02;;;12.00;59.00;;;;;;5001562;28;20033;-80
2022/03/24 09:22:30;;;;;;;48.40;28.05;;;12.00;59.30;;;;;;5004368;28;20025;-78
2022/03/24 09:24:57;;;;;;;50.42;27.83;;;12.00;58.50;;;;;;5041192;28;20151;-81
2022/03/24 09:27:22;;;;;;;54.67;28.52;;;12.10;58.50;;;;;;5026480;28;20048;-78
2022/03/24 09:29:49;;;;;;;48.58;27.00;;;12.20;58.50;;;;;;5038504;28;20026;-81
2022/03/24 09:32:18;;;;;;;49.70;28.20;;;12.30;58.70;;;;;;5002691;28;20025;-77
2022/03/24 09:34:44;;;;;;;49.95;26.92;;;12.30;58.40;;;;;;5020948;28;20026;-81
2022/03/24 09:37:12;;;;;;;48.88;28.67;;;12.40;58.50;;;;;;5022122;28;20041;-84
2022/03/24 09:39:40;;;;;;;52.03;26.63;;;12.40;58.70;;;;;;5003342;28;20021;-77
2022/03/24 09:42:06;;;;;;;47.47;27.13;;;12.50;58.20;;;;;;5038064;28;20044;-78
2022/03/24 09:44:32;;;;;;;53.08;29.02;;;12.50;58.40;;;;;;4999637;28;20032;-79
2022/03/24 09:46:58;;;;;;;49.42;28.20;;;12.50;58.40;;;;;;5004289;28;20032;-79
2022/03/24 09:49:24;;;;;;;48.13;28.05;;;12.60;58.30;;;;;;5023283;28;20029;-81
2022/03/24 09:51:50;;;;;;;51.58;26.85;;;12.70;58.10;;;;;;5019925;28;20432;-81
2022/03/24 09:54:16;;;;;;;45.53;26.10;;;12.70;58.50;;;;;;5001649;28;20067;-78
2022/03/24 09:56:42;;;;;;;46.97;26.55;;;12.90;56.80;;;;;;5024151;28;20025;-77
2022/03/24 09:59:09;;;;;;;50.08;27.27;;;12.90;57.20;;;;;;5038427;28;20345;-78
2022/03/24 10:01:36;;;;;;;50.10;27.35;;;12.90;57.50;;;;;;5039436;28;20113;-81
2022/03/24 10:04:03;;;;;;;44.55;26.13;;;13.00;56.50;;;;;;5000546;28;20033;-82
2022/03/24 10:06:29;;;;;;;49.70;27.27;;;13.00;56.30;;;;;;5018410;28;20055;-82
2022/03/24 10:08:54;;;;;;;49.78;26.25;;;13.10;57.00;;;;;;5019656;28;20033;-81
2022/03/24 10:11:23;;;;;;;53.55;27.58;;;13.10;56.20;;;;;;5006086;28;20057;-81
2022/03/24 10:13:53;;;;;;;48.10;27.08;;;13.30;56.30;;;;;;5006636;28;20139;-77
2022/03/24 10:16:35;;;;;;;50.45;28.10;;;13.30;56.00;;;;;;5010788;28;20025;-81
2022/03/24 10:19:06;;;;;;;59.25;28.80;;;13.40;56.00;;;;;;5027774;28;20033;-81
2022/03/24 10:21:34;;;;;;;55.83;26.95;;;13.40;55.80;;;;;;5029767;28;20048;-79
2022/03/24 10:24:08;;;;;;;48.03;27.00;;;13.50;54.80;;;;;;5010962;28;20074;-82
2022/03/24 10:27:04;;;;;;;48.47;27.05;;;13.60;55.70;;;;;;5007031;28;20500;-77
2022/03/24 10:29:31;;;;;;;46.17;26.42;;;13.60;55.90;;;;;;5029691;28;20025;-79
2022/03/24 10:32:09;;;;;;;51.65;27.38;;;13.60;56.10;;;;;;5042151;28;20036;-80
2022/03/24 10:34:38;;;;;;;50.28;27.75;;;13.70;56.10;;;;;;5012229;28;20028;-80
2022/03/24 10:37:12;;;;;;;54.17;29.10;;;13.80;55.70;;;;;;5033443;28;20077;-81
2022/03/24 10:39:40;;;;;;;51.88;28.52;;;13.90;55.80;;;;;;5013449;28;20101;-81
2022/03/24 10:42:17;;;;;;;54.95;27.83;;;13.90;56.10;;;;;;5020778;28;20475;-81
2022/03/24 10:45:18;;;;;;;55.70;29.70;;;14.00;56.10;;;;;;5011423;28;20172;-79
2022/03/24 10:47:52;;;;;;;54.38;27.65;;;14.20;55.60;;;;;;5026618;28;20029;-79
2022/03/24 10:50:28;;;;;;;44.67;27.17;;;14.20;55.40;;;;;;5022695;28;20028;-81
2022/03/24 10:53:08;;;;;;;51.10;29.23;;;14.30;55.60;;;;;;5019419;28;20093;-80
2022/03/24 10:55:52;;;;;;;47.05;27.45;;;14.30;54.70;;;;;;5017414;28;20053;-82
2022/03/24 10:58:29;;;;;;;42.53;26.10;;;14.40;55.20;;;;;;5018070;28;20029;-79
2022/03/24 11:01:02;;;;;;;48.40;26.38;;;14.50;54.60;;;;;;5018386;28;20048;-79
2022/03/24 11:03:28;;;;;;;50.60;26.02;;;14.70;54.00;;;;;;5020664;28;20034;-78
2022/03/24 11:06:12;;;;;;;42.58;24.52;;;14.90;53.10;;;;;;4998415;28;20054;-80
2022/03/24 11:08:38;;;;;;;45.35;26.67;;;15.50;53.60;;;;;;5019097;28;20080;-79
2022/03/24 11:11:10;;;;;;;43.58;25.25;;;16.80;52.10;;;;;;5020279;28;20068;-79
2022/03/24 11:14:05;;;;;;;43.08;25.35;;;18.40;49.20;;;;;;5018547;28;20051;-82
2022/03/24 11:16:34;;;;;;;39.88;25.08;;;20.40;46.00;;;;;;4986609;28;20041;-80
2022/03/24 11:19:11;;;;;;;36.17;22.63;;;21.90;45.50;;;;;;5036491;28;20034;-82
2022/03/24 11:21:40;;;;;;;41.92;24.42;;;23.40;41.40;;;;;;5001690;28;20032;-82
2022/03/24 11:24:06;;;;;;;33.67;22.80;;;24.50;39.40;;;;;;5015428;28;20025;-79
2022/03/24 11:26:34;;;;;;;33.25;22.98;;;25.40;37.90;;;;;;5018470;28;20059;-78
2022/03/24 11:28:59;;;;;;;27.95;21.10;;;26.10;36.50;;;;;;5036862;28;20028;-79
2022/03/24 11:31:31;;;;;;;31.33;21.02;;;26.20;36.10;;;;;;5016511;28;20026;-77
2022/03/24 11:34:00;;;;;;;25.83;19.13;;;26.00;35.90;;;;;;5018613;28;20006;-78
2022/03/24 11:36:28;;;;;;;33.17;24.38;;;25.50;36.30;;;;;;5017221;28;20120;-77
2022/03/24 11:38:56;;;;;;;40.03;28.15;;;25.00;35.60;;;;;;5014237;28;20029;-77
2022/03/24 11:41:30;;;;;;;35.95;23.95;;;24.20;33.70;;;;;;5032704;28;20109;-78
2022/03/24 11:44:04;;;;;;;38.92;24.20;;;23.50;37.30;;;;;;5012681;28;20085;-77
2022/03/24 11:46:41;;;;;;;36.30;27.60;;;22.90;38.70;;;;;;4997507;28;20021;-76
2022/03/24 11:49:19;;;;;;;37.67;25.88;;;22.60;37.10;;;;;;5016250;28;20437;-80
2022/03/24 11:51:48;;;;;;;37.75;25.50;;;22.10;38.40;;;;;;5037585;28;20040;-78
2022/03/24 11:54:43;;;;;;;32.75;23.90;;;21.70;38.20;;;;;;5020946;28;20080;-78
2022/03/24 11:57:22;;;;;;;35.47;25.02;;;21.50;39.40;;;;;;5007425;28;20049;-76
2022/03/24 12:00:13;;;;;;;35.58;24.80;;;21.00;41.00;;;;;;5027355;28;20560;-81
2022/03/24 12:02:44;;;;;;;37.72;24.50;;;20.80;41.10;;;;;;5016288;28;20029;-80
2022/03/24 12:05:14;;;;;;;37.10;24.92;;;20.30;41.60;;;;;;5007116;28;20036;-77
2022/03/24 12:07:40;;;;;;;37.42;22.83;;;19.90;42.40;;;;;;5030044;28;20025;-81
2022/03/24 12:10:09;;;;;;;36.72;24.33;;;19.60;42.80;;;;;;4997416;28;20172;-79
2022/03/24 12:12:36;;;;;;;34.45;23.23;;;19.70;41.50;;;;;;5033256;28;20029;-80
2022/03/24 12:15:11;;;;;;;38.33;23.30;;;19.80;42.10;;;;;;5016500;28;20025;-80
2022/03/24 12:17:37;;;;;;;35.13;22.30;;;19.90;42.40;;;;;;5000369;28;20033;-81
2022/03/24 12:20:20;;;;;;;36.25;22.67;;;20.00;42.10;;;;;;5035674;28;20036;-81
2022/03/24 12:22:47;;;;;;;42.65;24.33;;;20.20;41.70;;;;;;5032426;28;20059;-78
2022/03/24 12:25:12;;;;;;;45.85;27.13;;;20.40;40.70;;;;;;5017439;28;20026;-81
2022/03/24 12:27:58;;;;;;;37.00;23.48;;;20.50;39.70;;;;;;5015782;28;20099;-81
2022/03/24 12:30:25;;;;;;;40.47;24.25;;;20.80;40.50;;;;;;5017734;28;20035;-77
2022/03/24 12:33:09;;;;;;;34.45;22.02;;;21.00;40.40;;;;;;5033581;28;20098;-77
2022/03/24 12:36:01;;;;;;;35.35;23.60;;;21.40;39.70;;;;;;5032328;28;20026;-78
2022/03/24 12:38:26;;;;;;;40.47;24.25;;;21.60;38.30;;;;;;5014080;28;20037;-81